LLHB weather

Hatzerim Air Base
Beersheba, Southern District, Israel

Public forecast

Using degrees Celsius for public forecast. Weather courtesy of forecast.io.

METAR (pilot weather report)

Report is more than 6 hours old.

Closest report is El Arish International Airport, 43.6 nm (80.7 km) WSW. Retrieved 2019/09/02 14:00 UTC (19 days ago):

HEAR 021400Z NI

TAF (pilot weather forecast)

Forecast is more than 12 hours old.

Closest forecast is El Gora Airport, 29.1 nm (53.9 km) WSW. Retrieved 2019/09/14 12:00 UTC (7 days ago):

TAF HEGR 141100Z 1412/1518 31008KT 9999 SCT025 PROB30 TEMPO 1412/1418 6000 -RA BKN020